Time;durP1;ratioP1;P1;durP2;ratioP2;P2;SDS_P1;SDS_P2;PMS_P1;PMS_P2;Temp;Humidity;BMP_temperature;BMP_pressure;BME280_temperature;BME280_humidity;BME280_pressure;Samples;Min_cycle;Max_cycle;Signal;HPM_P1;HPM_P2
2022/08/14 00:00:48;;;;;;;9.38;3.78;;;;;;;;;;5004454;28;20438;-51
2022/08/14 00:03:22;;;;;;;15.05;4.63;;;;;;;;;;5011951;28;20464;-49
2022/08/14 00:05:49;;;;;;;10.57;3.65;;;;;;;;;;5011913;28;20104;-48
2022/08/14 00:08:16;;;;;;;9.18;3.45;;;;;;;;;;5011456;28;20459;-53
2022/08/14 00:10:43;;;;;;;13.57;3.95;;;;;;;;;;5011047;28;20022;-54
2022/08/14 00:13:11;;;;;;;9.52;3.53;;;;;;;;;;5009253;28;20030;-49
2022/08/14 00:15:40;;;;;;;6.95;3.50;;;;;;;;;;5010564;28;20049;-53
2022/08/14 00:18:08;;;;;;;8.32;4.25;;;;;;;;;;4992749;28;20411;-49
2022/08/14 00:20:37;;;;;;;12.57;3.58;;;;;;;;;;5004540;28;20048;-53
2022/08/14 00:23:05;;;;;;;12.80;3.65;;;;;;;;;;5008914;28;20032;-51
2022/08/14 00:25:32;;;;;;;17.80;3.88;;;;;;;;;;5009459;28;20038;-49
2022/08/14 00:27:59;;;;;;;18.05;4.32;;;;;;;;;;5007840;28;20034;-50
2022/08/14 00:30:27;;;;;;;17.02;5.10;;;;;;;;;;5009754;28;20021;-52
2022/08/14 00:32:54;;;;;;;16.77;5.43;;;;;;;;;;5007245;28;20033;-52
2022/08/14 00:35:21;;;;;;;19.63;5.05;;;;;;;;;;5007032;28;20032;-51
2022/08/14 00:37:48;;;;;;;18.38;4.88;;;;;;;;;;5007937;28;20388;-54
2022/08/14 00:40:17;;;;;;;21.13;6.13;;;;;;;;;;5004524;28;20025;-52
2022/08/14 00:42:44;;;;;;;29.17;7.50;;;;;;;;;;5007754;28;20116;-52
2022/08/14 00:45:12;;;;;;;22.02;6.75;;;;;;;;;;5008189;28;20526;-55
2022/08/14 00:47:40;;;;;;;26.27;7.43;;;;;;;;;;5009488;28;20617;-53
2022/08/14 00:50:07;;;;;;;25.80;6.78;;;;;;;;;;5012032;28;20084;-54
2022/08/14 00:52:35;;;;;;;33.45;7.72;;;;;;;;;;5011556;28;20038;-51
2022/08/14 00:55:02;;;;;;;19.77;6.90;;;;;;;;;;5013486;28;20034;-51
2022/08/14 00:57:33;;;;;;;31.45;7.95;;;;;;;;;;5012018;28;20025;-52
2022/08/14 01:00:01;;;;;;;28.92;7.97;;;;;;;;;;5013674;28;20026;-51
2022/08/14 01:02:28;;;;;;;24.50;7.80;;;;;;;;;;5009298;28;20365;-53
2022/08/14 01:05:06;;;;;;;31.92;7.88;;;;;;;;;;5012411;28;20050;-53
2022/08/14 01:07:33;;;;;;;33.28;8.18;;;;;;;;;;5011924;28;20033;-50
2022/08/14 01:10:03;;;;;;;31.63;8.20;;;;;;;;;;5011911;28;20040;-53
2022/08/14 01:12:30;;;;;;;27.90;8.27;;;;;;;;;;5010375;28;20387;-54
2022/08/14 01:14:58;;;;;;;27.42;8.00;;;;;;;;;;5013645;28;20026;-50
2022/08/14 01:23:01;;;;;;;25.35;7.60;;;;;;;;;;5013988;28;20099;-53
2022/08/14 01:25:28;;;;;;;24.00;7.20;;;;;;;;;;5002289;28;20025;-51
2022/08/14 01:27:57;;;;;;;25.88;7.30;;;;;;;;;;5001196;28;20109;-50
2022/08/14 01:30:25;;;;;;;22.02;6.03;;;;;;;;;;5000975;28;20034;-54
2022/08/14 01:32:53;;;;;;;19.50;6.47;;;;;;;;;;5014105;28;20049;-51
2022/08/14 01:35:20;;;;;;;23.42;6.22;;;;;;;;;;5002580;28;20030;-52
2022/08/14 01:37:47;;;;;;;28.02;6.57;;;;;;;;;;4996546;28;20451;-52
2022/08/14 01:40:14;;;;;;;22.42;5.97;;;;;;;;;;5003619;28;20140;-53
2022/08/14 01:42:43;;;;;;;20.88;6.07;;;;;;;;;;5010480;28;20498;-50
2022/08/14 01:45:11;;;;;;;20.13;6.13;;;;;;;;;;5011232;28;20476;-52
2022/08/14 01:47:39;;;;;;;15.07;5.20;;;;;;;;;;5008374;28;20041;-52
2022/08/14 01:50:06;;;;;;;16.95;5.63;;;;;;;;;;4982044;28;20050;-51
2022/08/14 01:52:35;;;;;;;19.48;5.25;;;;;;;;;;5000071;28;20029;-52
2022/08/14 01:55:07;;;;;;;13.48;4.85;;;;;;;;;;5005013;28;20555;-53
2022/08/14 01:57:38;;;;;;;16.75;5.20;;;;;;;;;;5007102;28;20062;-52
2022/08/14 02:00:17;;;;;;;22.05;4.93;;;;;;;;;;5005650;28;20512;-50
2022/08/14 02:02:44;;;;;;;17.30;5.07;;;;;;;;;;5011300;28;20141;-54
2022/08/14 02:05:14;;;;;;;15.85;4.65;;;;;;;;;;5012474;28;20052;-51
2022/08/14 02:07:42;;;;;;;17.65;5.32;;;;;;;;;;4991371;28;20084;-49
2022/08/14 02:10:11;;;;;;;14.88;4.50;;;;;;;;;;5013024;28;20124;-53
2022/08/14 02:12:38;;;;;;;20.55;5.32;;;;;;;;;;5010607;28;20049;-53
2022/08/14 02:15:08;;;;;;;33.47;5.97;;;;;;;;;;4994472;28;20036;-51
2022/08/14 02:17:36;;;;;;;25.00;5.30;;;;;;;;;;5003845;28;20030;-53
2022/08/14 02:20:04;;;;;;;17.45;5.55;;;;;;;;;;5002372;28;20081;-52
2022/08/14 02:22:31;;;;;;;20.98;5.65;;;;;;;;;;5001956;28;20018;-51
2022/08/14 02:24:58;;;;;;;16.58;5.00;;;;;;;;;;5001630;28;20029;-54
2022/08/14 02:27:26;;;;;;;15.85;4.63;;;;;;;;;;5005507;28;20084;-52
2022/08/14 02:29:55;;;;;;;20.30;5.10;;;;;;;;;;4999031;28;20061;-51
2022/08/14 02:32:22;;;;;;;17.80;4.43;;;;;;;;;;5007732;28;20396;-53
2022/08/14 02:34:49;;;;;;;16.10;5.13;;;;;;;;;;5009583;28;20049;-57
2022/08/14 02:37:16;;;;;;;15.85;4.70;;;;;;;;;;5007489;28;20033;-52
2022/08/14 02:39:45;;;;;;;16.38;3.80;;;;;;;;;;5000660;28;20088;-55
2022/08/14 02:42:14;;;;;;;15.18;4.90;;;;;;;;;;5000328;28;20030;-55
2022/08/14 02:44:42;;;;;;;13.75;4.15;;;;;;;;;;5001033;28;20041;-57
2022/08/14 02:47:09;;;;;;;15.85;4.70;;;;;;;;;;5000553;28;20053;-55
2022/08/14 02:49:36;;;;;;;9.60;4.05;;;;;;;;;;5001008;28;20504;-51
2022/08/14 02:52:06;;;;;;;16.10;4.53;;;;;;;;;;4982924;28;20104;-52
2022/08/14 02:54:33;;;;;;;15.23;4.18;;;;;;;;;;5000252;28;20033;-50
2022/08/14 02:57:04;;;;;;;17.42;4.60;;;;;;;;;;5001158;28;20052;-54
2022/08/14 02:59:32;;;;;;;10.32;4.28;;;;;;;;;;5001126;28;20577;-56
2022/08/14 03:01:59;;;;;;;11.18;4.55;;;;;;;;;;5005413;28;20522;-55
2022/08/14 03:04:27;;;;;;;16.98;4.15;;;;;;;;;;5001632;28;20042;-53
2022/08/14 03:06:54;;;;;;;10.48;3.83;;;;;;;;;;5003823;28;20088;-56
2022/08/14 03:09:21;;;;;;;13.30;3.50;;;;;;;;;;5009051;28;20026;-55
2022/08/14 03:11:48;;;;;;;7.75;3.50;;;;;;;;;;5009645;28;20036;-55
2022/08/14 03:14:15;;;;;;;9.38;3.65;;;;;;;;;;5009505;28;20075;-55
2022/08/14 03:16:44;;;;;;;9.18;3.47;;;;;;;;;;5009603;28;20476;-56
2022/08/14 03:19:12;;;;;;;11.45;3.78;;;;;;;;;;5008088;28;20034;-53
2022/08/14 03:21:39;;;;;;;8.65;3.22;;;;;;;;;;4992945;28;20038;-55
2022/08/14 03:24:12;;;;;;;10.98;4.35;;;;;;;;;;4993033;28;20526;-56
2022/08/14 03:26:41;;;;;;;11.30;3.38;;;;;;;;;;4992980;28;20050;-55
2022/08/14 03:29:08;;;;;;;10.45;3.83;;;;;;;;;;4992779;28;20023;-53
2022/08/14 03:31:37;;;;;;;8.75;3.47;;;;;;;;;;4992502;28;20530;-56
2022/08/14 03:34:04;;;;;;;5.88;2.90;;;;;;;;;;4992690;28;20495;-54
2022/08/14 03:36:31;;;;;;;7.55;3.00;;;;;;;;;;5007034;28;20026;-56
2022/08/14 03:38:58;;;;;;;10.18;3.35;;;;;;;;;;4994703;28;20037;-57
2022/08/14 03:41:26;;;;;;;11.55;2.92;;;;;;;;;;5012128;28;20029;-56
2022/08/14 03:43:55;;;;;;;7.85;3.00;;;;;;;;;;5012153;28;20026;-56
2022/08/14 03:46:22;;;;;;;8.55;2.97;;;;;;;;;;5012265;28;20025;-55
2022/08/14 03:48:49;;;;;;;7.13;3.05;;;;;;;;;;5012510;28;20396;-54
2022/08/14 03:51:16;;;;;;;9.27;3.13;;;;;;;;;;5011822;28;20116;-55
2022/08/14 03:53:45;;;;;;;7.25;3.15;;;;;;;;;;5012362;28;20088;-55
2022/08/14 03:56:13;;;;;;;8.85;3.15;;;;;;;;;;5012012;28;20038;-56
2022/08/14 03:58:44;;;;;;;5.72;2.72;;;;;;;;;;5011671;28;20045;-55
2022/08/14 04:01:12;;;;;;;7.53;2.95;;;;;;;;;;4994523;28;20377;-55
2022/08/14 04:03:39;;;;;;;4.45;3.10;;;;;;;;;;5011740;28;20029;-55
2022/08/14 04:06:10;;;;;;;9.57;2.72;;;;;;;;;;5012077;28;20026;-54
2022/08/14 04:08:38;;;;;;;6.88;2.83;;;;;;;;;;5012101;28;20030;-56
2022/08/14 04:11:06;;;;;;;5.03;3.00;;;;;;;;;;5011779;28;20029;-53
2022/08/14 04:13:34;;;;;;;7.15;3.05;;;;;;;;;;4991683;28;20034;-57
2022/08/14 04:16:02;;;;;;;6.10;3.13;;;;;;;;;;4994207;28;20034;-56
2022/08/14 04:18:29;;;;;;;5.18;2.60;;;;;;;;;;4991911;28;20030;-55
2022/08/14 04:20:56;;;;;;;4.93;2.60;;;;;;;;;;5002555;28;20389;-55
2022/08/14 04:23:24;;;;;;;11.93;2.55;;;;;;;;;;5015325;28;20044;-56
2022/08/14 04:25:54;;;;;;;4.28;2.67;;;;;;;;;;5016591;28;20029;-55
2022/08/14 04:28:23;;;;;;;7.75;2.70;;;;;;;;;;5015950;28;20033;-53
2022/08/14 04:30:50;;;;;;;6.22;2.80;;;;;;;;;;5004996;28;20041;-54
2022/08/14 04:33:16;;;;;;;7.75;2.90;;;;;;;;;;5004852;28;20052;-56
2022/08/14 04:35:43;;;;;;;6.85;2.88;;;;;;;;;;5005772;28;20037;-54
2022/08/14 04:43:42;;;;;;;12.90;2.92;;;;;;;;;;5008384;28;20108;-54
2022/08/14 04:46:14;;;;;;;11.75;2.90;;;;;;;;;;5004408;28;20029;-55
2022/08/14 04:48:42;;;;;;;11.18;2.80;;;;;;;;;;5005910;28;20057;-55
2022/08/14 04:51:11;;;;;;;8.18;2.85;;;;;;;;;;5006173;28;20032;-54
2022/08/14 04:53:43;;;;;;;5.55;2.58;;;;;;;;;;5003937;28;20030;-56
2022/08/14 04:56:10;;;;;;;;;;;;;;;;;;4996496;28;20051;-55
2022/08/14 04:58:37;;;;;;;7.75;2.75;;;;;;;;;;4996229;28;20008;-56
2022/08/14 05:01:06;;;;;;;8.50;2.65;;;;;;;;;;4996037;28;20038;-57
2022/08/14 05:03:35;;;;;;;11.07;2.80;;;;;;;;;;4995932;28;20503;-57
2022/08/14 05:06:04;;;;;;;5.53;2.40;;;;;;;;;;4995872;28;20054;-57
2022/08/14 05:08:32;;;;;;;5.18;2.28;;;;;;;;;;5012815;28;20097;-56
2022/08/14 05:11:01;;;;;;;8.52;3.22;;;;;;;;;;5015257;28;20030;-56
2022/08/14 05:13:30;;;;;;;6.43;2.13;;;;;;;;;;5015333;28;20034;-54
2022/08/14 05:16:00;;;;;;;6.63;2.75;;;;;;;;;;5015528;28;20498;-55
2022/08/14 05:18:30;;;;;;;6.10;2.50;;;;;;;;;;5015438;28;20030;-55
2022/08/14 05:20:58;;;;;;;5.68;2.75;;;;;;;;;;5015211;28;20036;-54
2022/08/14 05:23:27;;;;;;;7.15;2.15;;;;;;;;;;5015346;28;20087;-54
2022/08/14 05:26:00;;;;;;;5.10;2.58;;;;;;;;;;5015445;28;20026;-55
2022/08/14 05:28:28;;;;;;;3.22;2.38;;;;;;;;;;5015267;28;20033;-55
2022/08/14 05:30:56;;;;;;;8.68;2.60;;;;;;;;;;5015217;28;20100;-55
2022/08/14 05:33:24;;;;;;;5.40;2.22;;;;;;;;;;5014755;28;20065;-56
2022/08/14 05:35:53;;;;;;;4.35;2.20;;;;;;;;;;5015181;28;20479;-56
2022/08/14 05:38:22;;;;;;;6.85;2.22;;;;;;;;;;5015236;28;20045;-56
2022/08/14 05:40:49;;;;;;;6.13;2.45;;;;;;;;;;5015211;28;20036;-54
2022/08/14 05:43:17;;;;;;;3.95;2.38;;;;;;;;;;5015278;28;20044;-55
2022/08/14 05:45:45;;;;;;;5.75;2.88;;;;;;;;;;5015045;28;20044;-55
2022/08/14 05:48:14;;;;;;;3.45;2.40;;;;;;;;;;5014891;28;20022;-54
2022/08/14 05:50:41;;;;;;;5.97;2.38;;;;;;;;;;5014804;28;20037;-56
2022/08/14 05:53:08;;;;;;;3.88;2.40;;;;;;;;;;5014831;28;20028;-52
2022/08/14 05:55:35;;;;;;;5.03;2.47;;;;;;;;;;5014624;28;20032;-56
2022/08/14 05:58:04;;;;;;;5.63;2.58;;;;;;;;;;5014766;28;20021;-55
2022/08/14 06:00:36;;;;;;;3.97;2.65;;;;;;;;;;5014847;28;20036;-56
2022/08/14 06:03:04;;;;;;;4.90;2.35;;;;;;;;;;5012754;28;20100;-55
2022/08/14 06:05:32;;;;;;;6.28;2.00;;;;;;;;;;5014567;28;20054;-55
2022/08/14 06:07:59;;;;;;;7.90;2.30;;;;;;;;;;5014544;28;20397;-53
2022/08/14 06:10:29;;;;;;;4.57;1.90;;;;;;;;;;5014588;28;20037;-54
2022/08/14 06:12:57;;;;;;;4.28;2.17;;;;;;;;;;5014433;28;20037;-56
2022/08/14 06:15:25;;;;;;;4.32;2.38;;;;;;;;;;5014424;28;20490;-56
2022/08/14 06:17:54;;;;;;;2.88;2.00;;;;;;;;;;5014513;28;20494;-56
2022/08/14 06:20:22;;;;;;;4.00;2.15;;;;;;;;;;5014396;28;20036;-55
2022/08/14 06:22:49;;;;;;;4.97;2.47;;;;;;;;;;5014142;28;20026;-54
2022/08/14 06:25:16;;;;;;;3.92;2.50;;;;;;;;;;5014339;28;20029;-56
2022/08/14 06:27:48;;;;;;;3.33;1.95;;;;;;;;;;5014129;28;20099;-56
2022/08/14 06:30:16;;;;;;;2.67;2.15;;;;;;;;;;5014239;28;20030;-57
2022/08/14 06:32:43;;;;;;;3.33;2.03;;;;;;;;;;5014115;28;20053;-55
2022/08/14 06:35:13;;;;;;;3.97;2.10;;;;;;;;;;5014189;28;20030;-55
2022/08/14 06:37:49;;;;;;;3.55;1.83;;;;;;;;;;5014099;28;20038;-55
2022/08/14 06:40:18;;;;;;;3.40;2.08;;;;;;;;;;5013921;28;20134;-55
2022/08/14 06:42:45;;;;;;;2.50;2.03;;;;;;;;;;5013976;28;20022;-56
2022/08/14 06:45:12;;;;;;;3.67;1.83;;;;;;;;;;5013231;28;20033;-56
2022/08/14 06:47:41;;;;;;;2.85;1.92;;;;;;;;;;5013928;28;20490;-55
2022/08/14 06:50:09;;;;;;;4.25;1.88;;;;;;;;;;5013834;28;20512;-56
2022/08/14 06:52:36;;;;;;;2.58;2.05;;;;;;;;;;5013695;28;20506;-56
2022/08/14 06:55:04;;;;;;;2.65;1.85;;;;;;;;;;5013780;28;20036;-53
2022/08/14 06:57:38;;;;;;;3.85;2.05;;;;;;;;;;5013641;28;20034;-54
2022/08/14 07:00:09;;;;;;;4.00;1.90;;;;;;;;;;5013682;28;20045;-57
2022/08/14 07:08:29;;;;;;;3.05;1.85;;;;;;;;;;4991923;28;20046;-56
2022/08/14 07:10:58;;;;;;;4.90;2.33;;;;;;;;;;4991598;28;20030;-55
2022/08/14 07:13:25;;;;;;;2.97;1.77;;;;;;;;;;5002309;28;20041;-55
2022/08/14 07:15:53;;;;;;;3.55;2.00;;;;;;;;;;5013730;28;20498;-55
2022/08/14 07:18:22;;;;;;;3.25;1.80;;;;;;;;;;5013486;28;20026;-55
2022/08/14 07:20:49;;;;;;;3.92;1.80;;;;;;;;;;5013327;28;20476;-56
2022/08/14 07:23:16;;;;;;;2.55;1.95;;;;;;;;;;5013273;28;20033;-55
2022/08/14 07:25:44;;;;;;;5.22;2.10;;;;;;;;;;5013096;28;20065;-55
2022/08/14 07:28:18;;;;;;;4.55;2.30;;;;;;;;;;5013217;28;20025;-56
2022/08/14 07:30:46;;;;;;;2.80;1.90;;;;;;;;;;5013134;28;20071;-55
2022/08/14 07:33:13;;;;;;;2.78;1.92;;;;;;;;;;5013064;28;20084;-55
2022/08/14 07:35:40;;;;;;;3.88;2.33;;;;;;;;;;5013084;28;20037;-55
2022/08/14 07:38:08;;;;;;;2.22;1.98;;;;;;;;;;5013263;28;20384;-55
2022/08/14 07:40:35;;;;;;;3.55;2.05;;;;;;;;;;5013071;28;20030;-55
2022/08/14 07:43:02;;;;;;;5.10;2.22;;;;;;;;;;5012882;28;20034;-53
2022/08/14 07:45:29;;;;;;;2.60;1.83;;;;;;;;;;5012989;28;20033;-57
2022/08/14 07:47:56;;;;;;;3.60;2.03;;;;;;;;;;5012887;28;20026;-55
2022/08/14 07:50:24;;;;;;;3.13;2.20;;;;;;;;;;5012907;28;20029;-55
2022/08/14 07:52:51;;;;;;;3.50;2.03;;;;;;;;;;5012736;28;20034;-56
2022/08/14 07:55:18;;;;;;;3.28;2.13;;;;;;;;;;5012727;28;20030;-57
2022/08/14 07:57:45;;;;;;;4.00;2.03;;;;;;;;;;5012835;28;20029;-57
2022/08/14 08:00:14;;;;;;;2.65;2.08;;;;;;;;;;5012772;28;20033;-56
2022/08/14 08:02:41;;;;;;;3.42;2.00;;;;;;;;;;5012721;28;20104;-56
2022/08/14 08:05:09;;;;;;;2.88;1.90;;;;;;;;;;5012458;28;20042;-56
2022/08/14 08:07:37;;;;;;;3.20;2.05;;;;;;;;;;5012982;28;20022;-56
2022/08/14 08:10:29;;;;;;;3.80;2.55;;;;;;;;;;5012647;28;20022;-55
2022/08/14 08:12:53;;;;;;;2.58;1.98;;;;;;;;;;5012508;28;20041;-55
2022/08/14 08:15:21;;;;;;;2.92;1.73;;;;;;;;;;5012689;28;20057;-56
2022/08/14 08:17:47;;;;;;;2.72;2.00;;;;;;;;;;5012570;28;20029;-56
2022/08/14 08:20:18;;;;;;;3.30;2.17;;;;;;;;;;5012448;28;20026;-56
2022/08/14 08:22:47;;;;;;;3.03;2.20;;;;;;;;;;5012618;28;20026;-55
2022/08/14 08:25:13;;;;;;;2.55;1.80;;;;;;;;;;5012653;28;20018;-56
2022/08/14 08:27:41;;;;;;;3.22;2.33;;;;;;;;;;5012568;28;20030;-55
2022/08/14 08:30:09;;;;;;;2.05;1.80;;;;;;;;;;5012412;28;20026;-56
2022/08/14 08:32:40;;;;;;;2.83;1.98;;;;;;;;;;5012460;28;20034;-56
2022/08/14 08:35:11;;;;;;;3.00;2.15;;;;;;;;;;5012574;28;20488;-57
2022/08/14 08:37:38;;;;;;;3.28;2.03;;;;;;;;;;5012522;28;20038;-54
2022/08/14 08:40:05;;;;;;;2.65;1.73;;;;;;;;;;5012298;28;20030;-54
2022/08/14 08:42:32;;;;;;;2.63;1.80;;;;;;;;;;5012410;28;20040;-55
2022/08/14 08:44:59;;;;;;;3.20;2.13;;;;;;;;;;5012497;28;20109;-55
2022/08/14 08:47:26;;;;;;;1.98;1.67;;;;;;;;;;5012386;28;20041;-54
2022/08/14 08:49:54;;;;;;;2.53;1.83;;;;;;;;;;5012168;28;20030;-56
2022/08/14 08:52:21;;;;;;;1.98;1.60;;;;;;;;;;5012529;28;20399;-55
2022/08/14 08:54:54;;;;;;;1.98;1.65;;;;;;;;;;5012505;28;20117;-54
2022/08/14 08:57:21;;;;;;;2.92;2.10;;;;;;;;;;5012353;28;20033;-54
2022/08/14 08:59:48;;;;;;;3.22;2.13;;;;;;;;;;5012086;28;20025;-55
2022/08/14 09:02:17;;;;;;;2.88;1.83;;;;;;;;;;5012337;28;20109;-56
2022/08/14 09:04:44;;;;;;;2.10;1.83;;;;;;;;;;5011994;28;20045;-55
2022/08/14 09:07:13;;;;;;;2.58;1.98;;;;;;;;;;5012106;28;20030;-54
2022/08/14 09:09:52;;;;;;;2.58;1.95;;;;;;;;;;5015477;28;20037;-56
2022/08/14 09:12:20;;;;;;;2.60;2.00;;;;;;;;;;5015731;28;20177;-56
2022/08/14 09:14:47;;;;;;;2.65;2.17;;;;;;;;;;5015859;28;20034;-53
2022/08/14 09:17:14;;;;;;;2.03;1.70;;;;;;;;;;5015665;28;20096;-55
2022/08/14 09:19:42;;;;;;;1.75;1.48;;;;;;;;;;5015617;28;20037;-56
2022/08/14 09:22:09;;;;;;;2.40;1.70;;;;;;;;;;5015631;28;20041;-53
2022/08/14 09:24:37;;;;;;;1.70;1.60;;;;;;;;;;5015475;28;20065;-53
2022/08/14 09:27:05;;;;;;;2.72;1.73;;;;;;;;;;5015517;28;20022;-56
2022/08/14 09:29:32;;;;;;;2.92;2.00;;;;;;;;;;5015809;28;20388;-54
2022/08/14 09:32:03;;;;;;;2.72;1.60;;;;;;;;;;5015276;28;20030;-55
2022/08/14 09:34:39;;;;;;;2.42;1.67;;;;;;;;;;5015368;28;20153;-54
2022/08/14 09:37:24;;;;;;;2.95;1.80;;;;;;;;;;5015453;28;20018;-55
2022/08/14 09:39:53;;;;;;;2.33;1.73;;;;;;;;;;5015296;28;20026;-53
2022/08/14 09:42:29;;;;;;;2.03;1.83;;;;;;;;;;5015065;28;20104;-56
2022/08/14 09:44:56;;;;;;;2.45;2.05;;;;;;;;;;5015194;28;20022;-54
2022/08/14 09:47:40;;;;;;;2.30;1.85;;;;;;;;;;5015148;28;20037;-56
2022/08/14 09:50:28;;;;;;;2.30;1.80;;;;;;;;;;5014980;28;20037;-53
2022/08/14 09:53:08;;;;;;;2.38;1.80;;;;;;;;;;5014804;28;20499;-56
2022/08/14 09:55:36;;;;;;;2.35;1.98;;;;;;;;;;5015043;28;20030;-56
2022/08/14 09:58:11;;;;;;;2.85;1.85;;;;;;;;;;5014974;28;20373;-55
2022/08/14 10:00:48;;;;;;;2.10;1.90;;;;;;;;;;5014723;28;20034;-56
2022/08/14 10:03:26;;;;;;;3.35;2.00;;;;;;;;;;5014914;28;20557;-53
2022/08/14 10:06:03;;;;;;;2.05;1.70;;;;;;;;;;5014565;28;20065;-54
2022/08/14 10:08:40;;;;;;;2.33;1.90;;;;;;;;;;5014881;28;20029;-55
2022/08/14 10:11:16;;;;;;;2.80;1.92;;;;;;;;;;5014551;28;20065;-56
2022/08/14 10:13:43;;;;;;;1.85;1.55;;;;;;;;;;5014619;28;20428;-55
2022/08/14 10:16:11;;;;;;;2.05;1.70;;;;;;;;;;5014737;28;20022;-55
2022/08/14 10:18:38;;;;;;;2.20;1.77;;;;;;;;;;5014484;28;20037;-56
2022/08/14 10:21:08;;;;;;;2.30;1.50;;;;;;;;;;5013548;28;20152;-55
2022/08/14 10:23:44;;;;;;;1.80;1.52;;;;;;;;;;5014505;28;20104;-55
2022/08/14 10:26:12;;;;;;;2.53;1.95;;;;;;;;;;5014473;28;20099;-54
2022/08/14 10:28:41;;;;;;;2.05;1.80;;;;;;;;;;5014445;28;20026;-53
2022/08/14 10:31:28;;;;;;;2.28;1.83;;;;;;;;;;5014248;28;20037;-57
2022/08/14 10:34:01;;;;;;;2.72;2.00;;;;;;;;;;5014197;28;20507;-55
2022/08/14 10:36:38;;;;;;;2.30;1.75;;;;;;;;;;5014314;28;20061;-54
2022/08/14 10:39:15;;;;;;;2.33;1.77;;;;;;;;;;5014126;28;20033;-56
2022/08/14 10:41:43;;;;;;;2.70;2.00;;;;;;;;;;5014111;28;20108;-54
2022/08/14 10:44:13;;;;;;;2.38;1.75;;;;;;;;;;5014110;28;20484;-56
2022/08/14 10:47:01;;;;;;;2.05;1.80;;;;;;;;;;5014018;28;20049;-55
2022/08/14 10:49:29;;;;;;;2.30;1.98;;;;;;;;;;5014054;28;20125;-56
2022/08/14 10:52:10;;;;;;;2.58;1.80;;;;;;;;;;5013016;28;20038;-55
2022/08/14 10:54:47;;;;;;;3.85;1.70;;;;;;;;;;5013714;28;20038;-56
2022/08/14 10:57:24;;;;;;;3.45;1.70;;;;;;;;;;5013904;28;20030;-55
2022/08/14 10:59:54;;;;;;;2.35;1.65;;;;;;;;;;4996843;28;20037;-54
2022/08/14 11:02:23;;;;;;;2.30;1.70;;;;;;;;;;5013625;28;20037;-57
2022/08/14 11:05:00;;;;;;;3.40;1.52;;;;;;;;;;5012810;28;20045;-54
2022/08/14 11:07:27;;;;;;;1.95;1.48;;;;;;;;;;5013677;28;20021;-55
2022/08/14 11:10:00;;;;;;;4.40;1.77;;;;;;;;;;5013540;28;20030;-55
2022/08/14 11:12:38;;;;;;;3.42;1.58;;;;;;;;;;5013586;28;20027;-54
2022/08/14 11:15:06;;;;;;;2.88;1.70;;;;;;;;;;5013293;28;20496;-55
2022/08/14 11:17:35;;;;;;;3.65;1.60;;;;;;;;;;5013416;28;20037;-55
2022/08/14 11:20:03;;;;;;;2.42;1.67;;;;;;;;;;5013316;28;20034;-54
2022/08/14 11:22:31;;;;;;;1.65;1.30;;;;;;;;;;5013433;28;20030;-54
2022/08/14 11:25:01;;;;;;;2.33;1.60;;;;;;;;;;5013374;28;20030;-54
2022/08/14 11:27:30;;;;;;;2.50;1.30;;;;;;;;;;5013256;28;20445;-55
2022/08/14 11:30:00;;;;;;;3.13;1.33;;;;;;;;;;5013148;28;20029;-54
2022/08/14 11:32:32;;;;;;;2.05;1.38;;;;;;;;;;5012921;28;20484;-56
2022/08/14 11:35:02;;;;;;;2.83;1.50;;;;;;;;;;5013292;28;20033;-56
2022/08/14 11:37:32;;;;;;;1.98;1.40;;;;;;;;;;5013035;28;20033;-55
2022/08/14 11:40:00;;;;;;;3.65;1.20;;;;;;;;;;5012925;28;20085;-54
2022/08/14 11:42:27;;;;;;;2.75;1.30;;;;;;;;;;5012966;28;20034;-55
2022/08/14 11:44:58;;;;;;;1.42;1.30;;;;;;;;;;5012845;28;20048;-56
2022/08/14 11:47:25;;;;;;;2.38;1.40;;;;;;;;;;5012899;28;20131;-56
2022/08/14 11:49:52;;;;;;;1.98;1.38;;;;;;;;;;5013051;28;20033;-56
2022/08/14 11:52:19;;;;;;;2.33;1.30;;;;;;;;;;5012873;28;20041;-56
2022/08/14 11:54:56;;;;;;;2.53;1.23;;;;;;;;;;5012989;28;20112;-56
2022/08/14 11:57:23;;;;;;;2.40;1.38;;;;;;;;;;5012948;28;20029;-57
2022/08/14 12:00:00;;;;;;;1.83;1.30;;;;;;;;;;5012765;28;20030;-56
2022/08/14 12:02:27;;;;;;;1.20;1.08;;;;;;;;;;5012795;28;20057;-56
2022/08/14 12:04:54;;;;;;;1.52;1.02;;;;;;;;;;5012572;28;20049;-53
2022/08/14 12:07:21;;;;;;;2.45;1.20;;;;;;;;;;5012813;28;20376;-56
2022/08/14 12:09:52;;;;;;;2.17;1.30;;;;;;;;;;5011532;28;20029;-56
2022/08/14 12:12:20;;;;;;;2.13;1.30;;;;;;;;;;5012546;28;20032;-54
2022/08/14 12:14:58;;;;;;;2.50;1.27;;;;;;;;;;5012854;28;20057;-56
2022/08/14 12:17:30;;;;;;;2.95;1.02;;;;;;;;;;5012498;28;20472;-56
2022/08/14 12:19:59;;;;;;;1.23;0.88;;;;;;;;;;5011775;28;20026;-54
2022/08/14 12:22:45;;;;;;;1.70;1.30;;;;;;;;;;5011675;28;20044;-57
2022/08/14 12:25:14;;;;;;;4.13;1.15;;;;;;;;;;5009567;28;20034;-55
2022/08/14 12:27:49;;;;;;;1.63;0.98;;;;;;;;;;5012067;28;20056;-56
2022/08/14 12:30:34;;;;;;;2.13;1.30;;;;;;;;;;5010384;28;20038;-55
2022/08/14 12:33:02;;;;;;;3.13;1.20;;;;;;;;;;5011060;28;20038;-56
2022/08/14 12:35:43;;;;;;;2.60;1.00;;;;;;;;;;5009499;28;20028;-56
2022/08/14 12:38:10;;;;;;;1.85;1.20;;;;;;;;;;5003808;28;20018;-56
2022/08/14 12:40:50;;;;;;;1.73;1.00;;;;;;;;;;4997845;28;20018;-56
2022/08/14 12:43:18;;;;;;;1.83;1.08;;;;;;;;;;4995782;28;20077;-55
2022/08/14 12:45:55;;;;;;;1.95;1.30;;;;;;;;;;5004270;28;20381;-56
2022/08/14 12:48:23;;;;;;;1.67;1.27;;;;;;;;;;5007111;28;20049;-55
2022/08/14 12:50:51;;;;;;;3.10;1.27;;;;;;;;;;5005375;28;20026;-55
2022/08/14 12:53:18;;;;;;;2.60;1.00;;;;;;;;;;5009724;28;20476;-55
2022/08/14 12:55:46;;;;;;;1.33;1.00;;;;;;;;;;5010579;28;20431;-56
2022/08/14 12:58:13;;;;;;;1.58;1.10;;;;;;;;;;5006545;28;20488;-56
2022/08/14 13:00:49;;;;;;;3.45;1.45;;;;;;;;;;5000589;28;20033;-56
2022/08/14 13:03:25;;;;;;;1.80;1.08;;;;;;;;;;4997531;28;20030;-55
2022/08/14 13:05:52;;;;;;;2.47;1.30;;;;;;;;;;5002293;28;20476;-55
2022/08/14 13:08:23;;;;;;;1.65;1.10;;;;;;;;;;5002592;28;20056;-54
2022/08/14 13:10:50;;;;;;;2.22;1.05;;;;;;;;;;5006367;28;20034;-52
2022/08/14 13:13:18;;;;;;;1.92;1.25;;;;;;;;;;5006323;28;20081;-53
2022/08/14 13:15:46;;;;;;;1.60;1.10;;;;;;;;;;5008164;28;20026;-55
2022/08/14 13:18:16;;;;;;;13.43;2.00;;;;;;;;;;5003170;28;20535;-56
2022/08/14 13:20:47;;;;;;;4.97;2.10;;;;;;;;;;5010283;28;20030;-55
2022/08/14 13:23:16;;;;;;;8.18;1.98;;;;;;;;;;5015174;28;20357;-57
2022/08/14 13:25:44;;;;;;;8.93;2.50;;;;;;;;;;5004873;28;20069;-57
2022/08/14 13:28:12;;;;;;;6.82;2.50;;;;;;;;;;4989171;28;20357;-56
2022/08/14 13:30:41;;;;;;;12.73;2.92;;;;;;;;;;5013351;28;20165;-56
2022/08/14 13:33:09;;;;;;;9.80;2.55;;;;;;;;;;4980583;28;20445;-55
2022/08/14 13:35:37;;;;;;;12.73;2.30;;;;;;;;;;4994409;28;20034;-55
2022/08/14 13:38:04;;;;;;;6.63;2.40;;;;;;;;;;5009735;28;20029;-57
2022/08/14 13:40:32;;;;;;;11.90;2.40;;;;;;;;;;5005940;28;20038;-55
2022/08/14 13:42:59;;;;;;;14.60;3.17;;;;;;;;;;5008390;28;20037;-54
2022/08/14 13:45:26;;;;;;;11.65;2.42;;;;;;;;;;5014456;28;20073;-56
2022/08/14 13:47:54;;;;;;;9.75;2.60;;;;;;;;;;5002998;28;20431;-56
2022/08/14 13:50:21;;;;;;;7.10;2.45;;;;;;;;;;5010917;28;20065;-55
2022/08/14 13:52:55;;;;;;;7.65;2.03;;;;;;;;;;4989206;28;20489;-56
2022/08/14 13:55:26;;;;;;;7.47;2.00;;;;;;;;;;4997044;28;20477;-57
2022/08/14 13:57:56;;;;;;;7.43;2.13;;;;;;;;;;5004010;28;20062;-57
2022/08/14 14:00:23;;;;;;;9.32;2.10;;;;;;;;;;5004765;28;20057;-56
2022/08/14 14:02:50;;;;;;;10.13;2.15;;;;;;;;;;5005045;28;20030;-55
2022/08/14 14:05:19;;;;;;;10.95;2.20;;;;;;;;;;5005020;28;20049;-57
2022/08/14 14:07:48;;;;;;;11.32;2.05;;;;;;;;;;5005795;28;20030;-55
2022/08/14 14:10:15;;;;;;;7.25;1.77;;;;;;;;;;5005074;28;20026;-56
2022/08/14 14:12:43;;;;;;;13.23;1.80;;;;;;;;;;4999426;28;20104;-58
2022/08/14 14:15:12;;;;;;;8.68;1.80;;;;;;;;;;4996742;28;20041;-58
2022/08/14 14:17:39;;;;;;;4.22;1.67;;;;;;;;;;4996669;28;20113;-56
2022/08/14 14:20:11;;;;;;;5.82;1.75;;;;;;;;;;5003600;28;20447;-58
2022/08/14 14:22:45;;;;;;;10.15;2.05;;;;;;;;;;5006625;28;20038;-52
2022/08/14 14:25:13;;;;;;;9.18;1.80;;;;;;;;;;5006792;28;20476;-57
2022/08/14 14:27:46;;;;;;;9.60;1.80;;;;;;;;;;5007468;28;20034;-56
2022/08/14 14:30:14;;;;;;;8.43;1.80;;;;;;;;;;5004171;28;20400;-51
2022/08/14 14:32:43;;;;;;;6.18;1.73;;;;;;;;;;5000120;28;20042;-57
2022/08/14 14:35:13;;;;;;;5.63;1.83;;;;;;;;;;4998344;28;20022;-57
2022/08/14 14:37:40;;;;;;;12.57;2.17;;;;;;;;;;5007813;28;20049;-54
2022/08/14 14:40:08;;;;;;;28.80;2.60;;;;;;;;;;5009029;28;20033;-58
2022/08/14 14:42:36;;;;;;;10.93;2.35;;;;;;;;;;5012577;28;20133;-55
2022/08/14 14:45:06;;;;;;;17.08;3.08;;;;;;;;;;5012248;28;20041;-56
2022/08/14 14:47:33;;;;;;;18.30;2.40;;;;;;;;;;5010996;28;20030;-59
2022/08/14 14:50:03;;;;;;;26.35;2.95;;;;;;;;;;5011874;28;20025;-55
2022/08/14 14:52:31;;;;;;;37.22;4.25;;;;;;;;;;5011913;28;20052;-54
2022/08/14 14:54:58;;;;;;;30.38;3.38;;;;;;;;;;5010573;28;20365;-53
2022/08/14 14:57:26;;;;;;;47.58;3.85;;;;;;;;;;5012180;28;20022;-54
2022/08/14 14:59:54;;;;;;;41.80;4.93;;;;;;;;;;5011592;28;20784;-56
2022/08/14 15:02:33;;;;;;;29.00;3.63;;;;;;;;;;5011770;28;20026;-51
2022/08/14 15:05:01;;;;;;;31.38;3.63;;;;;;;;;;5011193;28;20104;-53
2022/08/14 15:07:28;;;;;;;31.98;3.75;;;;;;;;;;5002092;28;20050;-54